createdAt,value
2023-02-27T00:01:15.324Z,100.00
2023-02-27T00:03:46.750Z,100.00
2023-02-27T00:06:15.354Z,100.00
2023-02-27T00:08:43.694Z,100.00
2023-02-27T00:11:12.558Z,100.00
2023-02-27T00:13:41.130Z,100.00
2023-02-27T00:16:12.762Z,100.00
2023-02-27T00:18:41.695Z,100.00
2023-02-27T00:21:11.975Z,100.00
2023-02-27T00:23:40.117Z,100.00
2023-02-27T00:26:09.017Z,100.00
2023-02-27T00:28:37.610Z,100.00
2023-02-27T00:31:06.701Z,100.00
2023-02-27T00:33:35.554Z,100.00
2023-02-27T00:36:04.424Z,100.00
2023-02-27T00:38:34.842Z,100.00
2023-02-27T00:41:03.688Z,100.00
2023-02-27T00:43:32.734Z,100.00
2023-02-27T00:46:01.329Z,100.00
2023-02-27T00:48:29.661Z,100.00
2023-02-27T00:50:58.016Z,100.00
2023-02-27T00:53:26.522Z,100.00
2023-02-27T00:55:57.441Z,100.00
2023-02-27T00:58:25.762Z,100.00
2023-02-27T01:00:54.237Z,100.00
2023-02-27T01:03:22.635Z,100.00
2023-02-27T01:05:52.658Z,100.00
2023-02-27T01:08:21.458Z,100.00
2023-02-27T01:10:49.936Z,100.00
2023-02-27T01:13:19.845Z,100.00
2023-02-27T01:15:48.403Z,100.00
2023-02-27T01:18:17.315Z,100.00
2023-02-27T01:20:45.935Z,100.00
2023-02-27T01:23:15.203Z,100.00
2023-02-27T01:25:43.852Z,100.00
2023-02-27T01:28:12.677Z,100.00
2023-02-27T01:30:44.955Z,100.00
2023-02-27T01:33:13.289Z,100.00
2023-02-27T01:35:41.668Z,100.00
2023-02-27T01:38:09.976Z,100.00
2023-02-27T01:40:38.854Z,100.00
2023-02-27T01:43:08.482Z,100.00
2023-02-27T01:45:41.255Z,100.00
2023-02-27T01:48:18.962Z,100.00
2023-02-27T01:50:53.394Z,100.00
2023-02-27T01:53:25.213Z,100.00
2023-02-27T01:55:55.571Z,100.00
2023-02-27T01:58:24.520Z,100.00
2023-02-27T02:00:53.045Z,100.00
2023-02-27T02:03:27.683Z,100.00
2023-02-27T02:05:58.016Z,100.00
2023-02-27T02:08:28.437Z,100.00
2023-02-27T02:10:57.582Z,100.00
2023-02-27T02:13:26.189Z,100.00
2023-02-27T02:16:11.548Z,100.00
2023-02-27T02:18:49.344Z,100.00
2023-02-27T02:21:38.443Z,100.00
2023-02-27T02:24:46.649Z,100.00
2023-02-27T02:27:27.905Z,100.00
2023-02-27T02:30:51.610Z,100.00
2023-02-27T02:34:13.347Z,100.00
2023-02-27T02:37:09.683Z,100.00
2023-02-27T02:40:08.082Z,100.00
2023-02-27T02:42:39.666Z,100.00
2023-02-27T02:45:17.036Z,100.00
2023-02-27T02:47:57.146Z,100.00
2023-02-27T02:50:28.808Z,100.00
2023-02-27T02:53:03.915Z,100.00
2023-02-27T02:55:35.605Z,100.00
2023-02-27T02:58:09.422Z,100.00
2023-02-27T03:00:40.643Z,100.00
2023-02-27T03:03:13.764Z,100.00
2023-02-27T03:05:46.155Z,100.00
2023-02-27T03:08:17.161Z,100.00
2023-02-27T03:10:50.580Z,100.00
2023-02-27T03:13:22.527Z,100.00
2023-02-27T03:15:56.211Z,100.00
2023-02-27T03:18:27.349Z,100.00
2023-02-27T03:20:58.273Z,100.00
2023-02-27T03:23:29.430Z,100.00
2023-02-27T03:25:59.818Z,100.00
2023-02-27T03:28:30.579Z,100.00
2023-02-27T03:31:01.760Z,100.00
2023-02-27T03:33:34.070Z,100.00
2023-02-27T03:36:07.847Z,100.00
2023-02-27T03:38:41.939Z,100.00
2023-02-27T03:41:16.229Z,100.00
2023-02-27T03:43:51.503Z,100.00
2023-02-27T03:46:22.345Z,100.00
2023-02-27T03:48:50.682Z,100.00
2023-02-27T03:51:20.647Z,100.00
2023-02-27T03:53:51.861Z,100.00
2023-02-27T03:56:25.451Z,100.00
2023-02-27T03:58:53.840Z,100.00
2023-02-27T04:01:22.381Z,100.00
2023-02-27T04:03:53.951Z,100.00
2023-02-27T04:06:39.945Z,100.00
2023-02-27T04:09:12.407Z,100.00
2023-02-27T04:11:54.081Z,100.00
2023-02-27T04:14:36.655Z,100.00
2023-02-27T04:17:21.035Z,100.00
2023-02-27T04:20:22.018Z,100.00
2023-02-27T04:22:52.821Z,100.00
2023-02-27T04:25:48.754Z,100.00
2023-02-27T04:28:23.376Z,100.00
2023-02-27T04:31:00.246Z,100.00
2023-02-27T04:33:39.648Z,100.00
2023-02-27T04:36:13.159Z,100.00
2023-02-27T04:38:46.894Z,100.00
2023-02-27T04:41:18.124Z,100.00
2023-02-27T04:43:48.888Z,100.00
2023-02-27T04:46:20.396Z,100.00
2023-02-27T04:48:53.381Z,100.00
2023-02-27T04:51:27.144Z,100.00
2023-02-27T04:53:59.501Z,100.00
2023-02-27T04:56:32.010Z,100.00
2023-02-27T04:59:04.287Z,100.00
2023-02-27T05:01:37.077Z,100.00
2023-02-27T05:04:07.435Z,100.00
2023-02-27T05:06:42.326Z,100.00
2023-02-27T05:09:24.548Z,100.00
2023-02-27T05:11:55.994Z,100.00
2023-02-27T05:14:30.695Z,100.00
2023-02-27T05:17:10.991Z,100.00
2023-02-27T05:19:42.645Z,100.00
2023-02-27T05:22:26.340Z,100.00
2023-02-27T05:25:02.309Z,100.00
2023-02-27T05:27:41.421Z,100.00
2023-02-27T05:30:21.146Z,100.00
2023-02-27T05:32:51.896Z,100.00
2023-02-27T05:35:27.439Z,100.00
2023-02-27T05:38:03.357Z,100.00
2023-02-27T05:40:34.677Z,100.00
2023-02-27T05:43:06.693Z,100.00
2023-02-27T05:45:38.476Z,100.00
2023-02-27T05:48:10.173Z,100.00
2023-02-27T05:50:40.047Z,100.00
2023-02-27T05:53:10.557Z,100.00
2023-02-27T05:55:40.399Z,100.00
2023-02-27T06:02:04.904Z,100.00
2023-02-27T06:04:35.762Z,100.00
2023-02-27T06:07:26.535Z,100.00
2023-02-27T06:10:17.901Z,100.00
2023-02-27T06:13:08.939Z,100.00
2023-02-27T06:15:37.327Z,100.00
2023-02-27T06:18:08.276Z,100.00
2023-02-27T06:20:39.115Z,100.00
2023-02-27T06:23:07.752Z,100.00
2023-02-27T06:25:36.002Z,100.00
2023-02-27T06:28:04.808Z,100.00
2023-02-27T06:30:33.147Z,100.00
2023-02-27T06:33:04.263Z,100.00
2023-02-27T06:35:34.402Z,100.00
2023-02-27T06:38:02.721Z,100.00
2023-02-27T06:40:31.021Z,100.00
2023-02-27T06:42:59.489Z,100.00
2023-02-27T06:45:27.812Z,100.00
2023-02-27T06:47:56.086Z,100.00
2023-02-27T06:50:24.418Z,100.00
2023-02-27T06:52:54.081Z,100.00
2023-02-27T06:55:22.808Z,100.00
2023-02-27T06:57:51.072Z,100.00
2023-02-27T07:00:20.294Z,100.00
2023-02-27T07:02:48.623Z,100.00
2023-02-27T07:05:18.059Z,100.00
2023-02-27T07:07:46.990Z,100.00
2023-02-27T07:10:17.977Z,100.00
2023-02-27T07:12:46.245Z,100.00
2023-02-27T07:15:15.000Z,100.00
2023-02-27T07:17:43.318Z,100.00
2023-02-27T07:20:12.876Z,100.00
2023-02-27T07:22:42.249Z,100.00
2023-02-27T07:25:11.392Z,100.00
2023-02-27T07:27:44.399Z,100.00
2023-02-27T07:30:13.819Z,100.00
2023-02-27T07:32:42.202Z,100.00
2023-02-27T07:35:11.921Z,100.00
2023-02-27T07:37:40.521Z,100.00
2023-02-27T07:40:10.213Z,100.00
2023-02-27T07:42:38.514Z,100.00
2023-02-27T07:45:09.945Z,100.00
2023-02-27T07:47:38.391Z,100.00
2023-02-27T07:50:07.524Z,100.00
2023-02-27T07:52:36.161Z,100.00
2023-02-27T07:55:04.477Z,100.00
2023-02-27T07:57:32.764Z,100.00
2023-02-27T08:00:01.086Z,100.00
2023-02-27T08:02:30.973Z,100.00
2023-02-27T08:04:59.775Z,100.00
2023-02-27T08:07:28.312Z,100.00
2023-02-27T08:09:56.630Z,100.00
2023-02-27T08:12:25.393Z,100.00
2023-02-27T08:14:53.999Z,100.00
2023-02-27T08:17:22.522Z,100.00
2023-02-27T08:19:52.372Z,100.00
2023-02-27T08:22:20.973Z,100.00
2023-02-27T08:24:50.250Z,100.00
2023-02-27T08:27:18.643Z,100.00
2023-02-27T08:29:47.051Z,100.00
2023-02-27T08:32:15.492Z,100.00
2023-02-27T08:34:43.982Z,100.00
2023-02-27T08:37:13.722Z,100.00
2023-02-27T08:39:42.016Z,100.00
2023-02-27T08:42:10.677Z,100.00
2023-02-27T08:44:38.981Z,100.00
2023-02-27T08:47:07.234Z,100.00
2023-02-27T08:49:35.531Z,100.00
2023-02-27T08:52:05.620Z,100.00
2023-02-27T08:54:35.408Z,100.00
2023-02-27T08:57:04.262Z,100.00
2023-02-27T08:59:32.966Z,100.00
2023-02-27T09:02:01.254Z,100.00
2023-02-27T09:04:29.836Z,100.00
2023-02-27T09:06:58.636Z,100.00
2023-02-27T09:09:27.702Z,100.00
2023-02-27T09:11:57.657Z,100.00
2023-02-27T09:14:26.327Z,100.00
2023-02-27T09:16:56.283Z,100.00
2023-02-27T09:19:24.655Z,100.00
2023-02-27T09:21:54.241Z,100.00
2023-02-27T09:24:22.815Z,100.00
2023-02-27T09:26:52.828Z,100.00
2023-02-27T09:29:23.980Z,100.00
2023-02-27T09:31:52.608Z,100.00
2023-02-27T09:34:23.437Z,100.00
2023-02-27T09:36:52.232Z,100.00
2023-02-27T09:39:20.590Z,100.00
2023-02-27T09:42:01.478Z,100.00
2023-02-27T09:44:46.766Z,100.00
2023-02-27T09:47:25.632Z,100.00
2023-02-27T09:50:00.706Z,100.00
2023-02-27T09:52:30.073Z,100.00
2023-02-27T09:54:59.292Z,100.00
2023-02-27T09:57:41.266Z,100.00
2023-02-27T10:00:21.727Z,100.00
2023-02-27T10:02:59.063Z,100.00
2023-02-27T10:05:35.724Z,100.00
2023-02-27T10:08:11.192Z,100.00
2023-02-27T10:10:45.790Z,100.00
2023-02-27T10:13:36.959Z,100.00
2023-02-27T10:16:07.485Z,100.00
2023-02-27T10:18:41.226Z,100.00
2023-02-27T10:21:14.415Z,100.00
2023-02-27T10:23:45.702Z,100.00
2023-02-27T10:26:20.895Z,100.00
2023-02-27T10:28:49.613Z,100.00
2023-02-27T10:31:23.878Z,97.78
2023-02-27T10:33:52.286Z,95.95
2023-02-27T10:36:32.966Z,92.09
2023-02-27T10:39:06.244Z,95.56
2023-02-27T10:41:36.177Z,82.25
2023-02-27T10:44:05.256Z,90.96
2023-02-27T10:46:38.369Z,82.50
2023-02-27T10:49:14.260Z,80.68
2023-02-27T10:51:44.572Z,80.99
2023-02-27T10:54:17.331Z,77.43
2023-02-27T10:56:49.042Z,80.46
2023-02-27T10:59:22.566Z,75.72
2023-02-27T11:01:55.597Z,73.06
2023-02-27T11:04:30.054Z,83.00
2023-02-27T11:06:59.471Z,80.06
2023-02-27T11:09:29.725Z,76.89
2023-02-27T11:12:10.872Z,83.21
2023-02-27T11:14:49.478Z,78.75
2023-02-27T11:17:25.794Z,76.49
2023-02-27T11:19:57.963Z,76.98
2023-02-27T11:22:30.664Z,79.80
2023-02-27T11:25:24.261Z,78.39
2023-02-27T11:27:53.262Z,83.20
2023-02-27T11:30:27.090Z,76.81
2023-02-27T11:32:58.949Z,78.14
2023-02-27T11:35:32.299Z,78.93
2023-02-27T11:38:04.202Z,83.58
2023-02-27T11:40:39.046Z,70.91
2023-02-27T11:43:16.357Z,73.02
2023-02-27T11:46:16.673Z,69.79
2023-02-27T11:48:42.322Z,68.02
2023-02-27T11:51:30.343Z,64.12
2023-02-27T11:54:16.031Z,79.30
2023-02-27T11:56:47.377Z,81.96
2023-02-27T11:59:25.175Z,91.45
2023-02-27T12:01:57.697Z,86.41
2023-02-27T12:04:30.842Z,85.85
2023-02-27T12:07:04.560Z,90.92
2023-02-27T12:09:40.901Z,90.35
2023-02-27T12:12:17.851Z,96.26
2023-02-27T12:14:52.257Z,95.02
2023-02-27T12:17:24.441Z,99.49
2023-02-27T12:20:02.392Z,98.75
2023-02-27T12:22:33.972Z,99.65
2023-02-27T12:25:06.020Z,96.04
2023-02-27T12:27:43.780Z,100.00
2023-02-27T12:30:18.491Z,97.23
2023-02-27T12:32:52.665Z,100.00
2023-02-27T12:35:25.509Z,100.00
2023-02-27T12:37:53.997Z,100.00
2023-02-27T12:40:27.029Z,100.00
2023-02-27T12:43:20.206Z,100.00
2023-02-27T12:46:09.543Z,100.00
2023-02-27T12:48:51.241Z,100.00
2023-02-27T12:51:31.685Z,100.00
2023-02-27T12:54:14.370Z,100.00
2023-02-27T12:56:50.942Z,100.00
2023-02-27T12:59:34.594Z,100.00
2023-02-27T13:02:16.120Z,100.00
2023-02-27T13:04:47.331Z,100.00
2023-02-27T13:07:24.626Z,100.00
2023-02-27T13:09:56.038Z,100.00
2023-02-27T13:12:30.792Z,100.00
2023-02-27T13:15:04.382Z,100.00
2023-02-27T13:17:36.084Z,100.00
2023-02-27T13:20:14.618Z,100.00
2023-02-27T13:22:51.129Z,100.00
2023-02-27T13:25:19.823Z,100.00
2023-02-27T13:27:50.449Z,100.00
2023-02-27T13:30:25.819Z,100.00
2023-02-27T13:32:59.993Z,100.00
2023-02-27T13:35:36.298Z,100.00
2023-02-27T13:38:39.113Z,100.00
2023-02-27T13:41:38.254Z,100.00
2023-02-27T13:44:46.435Z,100.00
2023-02-27T13:47:43.548Z,100.00
2023-02-27T13:50:50.589Z,100.00
2023-02-27T13:53:24.546Z,100.00
2023-02-27T13:56:01.151Z,100.00
2023-02-27T13:58:29.530Z,100.00
2023-02-27T14:01:01.345Z,100.00
2023-02-27T14:03:32.656Z,100.00
2023-02-27T14:06:04.576Z,100.00
2023-02-27T14:08:39.939Z,100.00
2023-02-27T14:11:19.983Z,100.00
2023-02-27T14:14:30.243Z,100.00
2023-02-27T14:17:01.603Z,100.00
2023-02-27T14:19:56.882Z,100.00
2023-02-27T14:22:41.672Z,100.00
2023-02-27T14:25:23.135Z,100.00
2023-02-27T14:27:56.950Z,100.00
2023-02-27T14:30:45.847Z,100.00
2023-02-27T14:33:33.333Z,100.00
2023-02-27T14:36:10.235Z,100.00
2023-02-27T14:38:39.718Z,100.00
2023-02-27T14:41:30.956Z,100.00
2023-02-27T14:44:00.140Z,100.00
2023-02-27T14:46:30.851Z,100.00
2023-02-27T14:49:01.973Z,100.00
2023-02-27T14:51:32.863Z,100.00
2023-02-27T14:54:03.462Z,100.00
2023-02-27T14:56:34.648Z,100.00
2023-02-27T14:59:04.617Z,100.00
2023-02-27T15:01:37.692Z,100.00
2023-02-27T15:04:08.538Z,100.00
2023-02-27T15:06:46.216Z,100.00
2023-02-27T15:09:22.685Z,100.00
2023-02-27T15:12:03.435Z,100.00
2023-02-27T15:14:34.712Z,100.00
2023-02-27T15:17:03.546Z,100.00
2023-02-27T15:19:32.310Z,100.00
2023-02-27T15:22:04.714Z,100.00
2023-02-27T15:24:47.865Z,100.00
2023-02-27T15:27:21.898Z,100.00
2023-02-27T15:29:52.291Z,100.00
2023-02-27T15:32:27.535Z,100.00
2023-02-27T15:34:56.471Z,100.00
2023-02-27T15:37:27.135Z,100.00
2023-02-27T15:39:55.961Z,100.00
2023-02-27T15:42:30.247Z,100.00
2023-02-27T15:44:59.449Z,100.00
2023-02-27T15:47:29.615Z,100.00
2023-02-27T15:50:01.914Z,100.00
2023-02-27T15:52:34.518Z,100.00
2023-02-27T15:55:04.119Z,100.00
2023-02-27T15:57:34.502Z,100.00
2023-02-27T16:00:02.990Z,100.00
2023-02-27T16:02:36.578Z,100.00
2023-02-27T16:05:08.877Z,100.00
2023-02-27T16:07:44.093Z,100.00
2023-02-27T16:10:21.119Z,100.00
2023-02-27T16:12:51.220Z,100.00
2023-02-27T16:15:27.074Z,100.00
2023-02-27T16:18:04.004Z,100.00
2023-02-27T16:20:44.645Z,100.00
2023-02-27T16:23:20.167Z,100.00
2023-02-27T16:26:05.756Z,100.00
2023-02-27T16:28:43.887Z,100.00
2023-02-27T16:31:22.793Z,100.00
2023-02-27T16:34:03.088Z,100.00
2023-02-27T16:36:33.929Z,100.00
2023-02-27T16:39:03.417Z,100.00
2023-02-27T16:41:31.707Z,100.00
2023-02-27T16:44:01.427Z,100.00
2023-02-27T16:46:31.019Z,100.00
2023-02-27T16:49:14.203Z,100.00
2023-02-27T16:51:47.778Z,100.00
2023-02-27T16:54:16.640Z,100.00
2023-02-27T16:56:46.667Z,100.00
2023-02-27T16:59:30.556Z,100.00
2023-02-27T17:01:59.874Z,100.00
2023-02-27T17:04:29.201Z,100.00
2023-02-27T17:06:59.627Z,100.00
2023-02-27T17:09:34.082Z,100.00
2023-02-27T17:12:02.426Z,100.00
2023-02-27T17:14:34.240Z,100.00
2023-02-27T17:17:04.592Z,100.00
2023-02-27T17:19:39.457Z,100.00
2023-02-27T17:22:08.108Z,100.00
2023-02-27T17:24:36.504Z,100.00
2023-02-27T17:27:06.172Z,100.00
2023-02-27T17:29:38.003Z,100.00
2023-02-27T17:32:06.711Z,100.00
2023-02-27T17:34:35.357Z,100.00
2023-02-27T17:37:03.783Z,100.00
2023-02-27T17:39:33.868Z,100.00
2023-02-27T17:42:02.478Z,100.00
2023-02-27T17:44:30.962Z,100.00
2023-02-27T17:47:00.846Z,100.00
2023-02-27T17:49:29.311Z,100.00
2023-02-27T17:52:00.620Z,100.00
2023-02-27T17:54:29.437Z,100.00
2023-02-27T17:56:57.821Z,100.00
2023-02-27T17:59:28.808Z,100.00
2023-02-27T18:02:01.698Z,100.00
2023-02-27T18:04:29.986Z,100.00
2023-02-27T18:06:58.361Z,100.00
2023-02-27T18:09:26.621Z,100.00
2023-02-27T18:11:54.985Z,100.00
2023-02-27T18:14:23.428Z,100.00
2023-02-27T18:16:52.941Z,100.00
2023-02-27T18:19:26.972Z,100.00
2023-02-27T18:21:55.238Z,100.00
2023-02-27T18:24:23.636Z,100.00
2023-02-27T18:26:51.966Z,100.00
2023-02-27T18:29:22.144Z,100.00
2023-02-27T18:31:53.664Z,100.00
2023-02-27T18:34:26.757Z,100.00
2023-02-27T18:37:01.543Z,100.00
2023-02-27T18:39:33.861Z,100.00
2023-02-27T18:42:02.228Z,100.00
2023-02-27T18:44:33.178Z,100.00
2023-02-27T18:47:01.753Z,100.00
2023-02-27T18:49:32.982Z,100.00
2023-02-27T18:52:01.772Z,100.00
2023-02-27T18:54:33.128Z,100.00
2023-02-27T18:57:01.813Z,100.00
2023-02-27T18:59:30.165Z,100.00
2023-02-27T19:02:04.642Z,100.00
2023-02-27T19:04:35.479Z,100.00
2023-02-27T19:07:03.941Z,100.00
2023-02-27T19:09:32.956Z,100.00
2023-02-27T19:12:05.092Z,100.00
2023-02-27T19:14:37.156Z,100.00
2023-02-27T19:17:05.772Z,100.00
2023-02-27T19:19:37.023Z,100.00
2023-02-27T19:22:06.229Z,100.00
2023-02-27T19:24:34.756Z,100.00
2023-02-27T19:27:03.205Z,100.00
2023-02-27T19:29:32.194Z,100.00
2023-02-27T19:32:02.204Z,100.00
2023-02-27T19:34:30.523Z,100.00
2023-02-27T19:37:00.332Z,100.00
2023-02-27T19:39:28.968Z,100.00
2023-02-27T19:41:57.839Z,100.00
2023-02-27T19:44:27.021Z,100.00
2023-02-27T19:46:56.513Z,100.00
2023-02-27T19:49:25.066Z,100.00
2023-02-27T19:51:53.398Z,100.00
2023-02-27T19:54:24.460Z,100.00
2023-02-27T19:56:54.303Z,100.00
2023-02-27T19:59:27.147Z,100.00
2023-02-27T20:01:55.798Z,100.00
2023-02-27T20:04:24.951Z,100.00
2023-02-27T20:06:53.791Z,100.00
2023-02-27T20:09:26.906Z,100.00
2023-02-27T20:11:58.333Z,100.00
2023-02-27T20:14:27.225Z,100.00
2023-02-27T20:16:55.998Z,100.00
2023-02-27T20:19:24.696Z,100.00
2023-02-27T20:21:54.307Z,100.00
2023-02-27T20:24:24.699Z,100.00
2023-02-27T20:26:54.103Z,100.00
2023-02-27T20:29:25.130Z,100.00
2023-02-27T20:31:55.544Z,100.00
2023-02-27T20:34:35.746Z,100.00
2023-02-27T20:37:05.484Z,100.00
2023-02-27T20:51:10.108Z,100.00
2023-02-27T20:53:41.505Z,100.00
2023-02-27T20:56:13.315Z,100.00
2023-02-27T20:58:42.298Z,100.00
2023-02-27T21:01:12.076Z,100.00
2023-02-27T21:03:52.204Z,100.00
2023-02-27T21:06:21.375Z,100.00
2023-02-27T21:08:53.450Z,100.00
2023-02-27T21:11:28.453Z,100.00
2023-02-27T21:14:00.083Z,100.00
2023-02-27T21:16:29.851Z,100.00
2023-02-27T21:18:59.276Z,100.00
2023-02-27T21:21:31.552Z,100.00
2023-02-27T21:24:01.464Z,100.00
2023-02-27T21:26:35.304Z,100.00
2023-02-27T21:29:06.784Z,100.00
2023-02-27T21:31:37.094Z,100.00
2023-02-27T21:34:08.109Z,100.00
2023-02-27T21:36:44.305Z,100.00
2023-02-27T21:39:15.501Z,100.00
2023-02-27T21:41:46.460Z,100.00
2023-02-27T21:44:18.099Z,100.00
2023-02-27T21:46:48.082Z,100.00
2023-02-27T21:49:18.706Z,100.00
2023-02-27T21:51:49.329Z,100.00
2023-02-27T21:54:21.034Z,100.00
2023-02-27T21:56:54.174Z,100.00
2023-02-27T21:59:26.366Z,100.00
2023-02-27T22:01:55.225Z,100.00
2023-02-27T22:04:24.465Z,100.00
2023-02-27T22:06:56.116Z,100.00
2023-02-27T22:09:26.068Z,100.00
2023-02-27T22:11:56.909Z,100.00
2023-02-27T22:14:26.529Z,100.00
2023-02-27T22:16:55.508Z,100.00
2023-02-27T22:19:24.871Z,100.00
2023-02-27T22:21:56.347Z,100.00
2023-02-27T22:24:25.494Z,100.00
2023-02-27T22:26:57.743Z,100.00
2023-02-27T22:29:27.330Z,100.00
2023-02-27T22:31:56.208Z,100.00
2023-02-27T22:34:25.056Z,100.00
2023-02-27T22:36:55.473Z,100.00
2023-02-27T22:39:24.339Z,100.00
2023-02-27T22:41:55.351Z,100.00
2023-02-27T22:44:27.256Z,100.00
2023-02-27T22:46:58.041Z,100.00
2023-02-27T22:49:26.568Z,100.00
2023-02-27T22:51:55.889Z,100.00
2023-02-27T22:54:24.753Z,100.00
2023-02-27T22:56:57.918Z,100.00
2023-02-27T22:59:30.189Z,100.00
2023-02-27T23:01:58.964Z,100.00
2023-02-27T23:04:27.848Z,100.00
2023-02-27T23:06:59.540Z,100.00
2023-02-27T23:09:32.014Z,100.00
2023-02-27T23:12:03.817Z,100.00
2023-02-27T23:14:35.218Z,100.00
2023-02-27T23:17:04.296Z,100.00
2023-02-27T23:19:34.930Z,100.00
2023-02-27T23:22:06.942Z,100.00
2023-02-27T23:24:39.491Z,100.00
2023-02-27T23:27:25.421Z,100.00
2023-02-27T23:29:57.028Z,100.00
2023-02-27T23:32:29.157Z,100.00
2023-02-27T23:34:57.981Z,100.00
2023-02-27T23:37:26.581Z,100.00
2023-02-27T23:39:56.378Z,100.00
2023-02-27T23:42:46.073Z,100.00
2023-02-27T23:45:26.014Z,100.00
2023-02-27T23:47:57.638Z,100.00
2023-02-27T23:50:33.845Z,100.00
2023-02-27T23:53:04.723Z,100.00
2023-02-27T23:55:36.105Z,100.00
2023-02-27T23:58:08.965Z,100.00
